Newton Stewart, United Kingdom
Current Conditions -  °F | °C
As of 5:50 PM on Tuesday 21 Oct 2014 (Local Time) from EGPK Reporting Station
Rain Showers Rain Showers  
Wind Chill: 38°   Ceiling: Unl
Heat Index: 46°   Visibility: 6mi
Dew Point: 36°   Wind: 23mph
Humidity: 66%   Direction: 310°NW
Pressure: 29.83"   Gusts: NA
Location:  54.96°N, 4.48°W
Report Text: EGPK 211650Z 31020KT 9999 -SHRA FEW012 FEW020CB 08/02 Q1010
Loading
Personal Weather Stations






























Interactive Weather Map
Tropical Storm Tracking
New forecast layout! Learn more

10-Day Weather Forecast

Advertisements
Track Severe Weather on mobile